createdAt,value
2019-03-26T00:01:25.285Z,99516.20
2019-03-26T00:03:30.740Z,99522.59
2019-03-26T00:05:36.245Z,99532.81
2019-03-26T00:07:40.672Z,99531.80
2019-03-26T00:09:45.006Z,99537.52
2019-03-26T00:11:49.345Z,99541.87
2019-03-26T00:13:53.674Z,99538.34
2019-03-26T00:15:58.133Z,99536.66
2019-03-26T00:18:03.583Z,99534.33
2019-03-26T00:20:08.111Z,99545.88
2019-03-26T00:22:12.452Z,99545.06
2019-03-26T00:24:16.769Z,99549.23
2019-03-26T00:26:21.071Z,99551.58
2019-03-26T00:28:26.588Z,99549.04
2019-03-26T00:30:31.016Z,99551.41
2019-03-26T00:32:35.413Z,99556.10
2019-03-26T00:34:40.818Z,99568.67
2019-03-26T00:36:45.196Z,99569.66
2019-03-26T00:38:49.650Z,99568.81
2019-03-26T00:40:54.036Z,99577.03
2019-03-26T00:42:58.467Z,99566.80
2019-03-26T00:45:02.832Z,99571.67
2019-03-26T00:47:07.316Z,99569.17
2019-03-26T00:49:12.712Z,99574.33
2019-03-26T00:51:17.051Z,99577.15
2019-03-26T00:53:21.430Z,99583.19
2019-03-26T00:55:25.826Z,99582.52
2019-03-26T00:57:30.181Z,99584.20
2019-03-26T00:59:34.514Z,99588.41
2019-03-26T01:01:38.901Z,99596.59
2019-03-26T01:03:43.370Z,99597.44
2019-03-26T01:05:47.755Z,99595.11
2019-03-26T01:07:53.194Z,99598.96
2019-03-26T01:09:57.521Z,99596.45
2019-03-26T01:12:01.879Z,99599.80
2019-03-26T01:14:08.299Z,99601.15
2019-03-26T01:16:12.643Z,99598.64
2019-03-26T01:18:18.039Z,99593.73
2019-03-26T01:20:22.446Z,99593.73
2019-03-26T01:22:26.869Z,99592.88
2019-03-26T01:24:31.217Z,99591.69
2019-03-26T01:26:35.608Z,99594.05
2019-03-26T01:28:39.945Z,99596.37
2019-03-26T01:30:45.346Z,99598.70
2019-03-26T01:32:49.755Z,99601.55
2019-03-26T01:34:54.102Z,99608.22
2019-03-26T01:36:59.556Z,99602.67
2019-03-26T01:39:05.185Z,99608.88
2019-03-26T01:41:09.529Z,99606.16
2019-03-26T01:43:13.949Z,99598.95
2019-03-26T01:45:20.394Z,99609.98
2019-03-26T01:47:25.821Z,99609.45
2019-03-26T01:49:30.198Z,99606.76
2019-03-26T01:51:34.482Z,99610.23
2019-03-26T01:53:39.804Z,99614.75
2019-03-26T01:55:44.098Z,99612.37
2019-03-26T01:57:48.589Z,99623.62
2019-03-26T01:59:53.035Z,99613.71
2019-03-26T02:01:57.388Z,99625.58
2019-03-26T02:04:01.722Z,99617.00
2019-03-26T02:06:11.985Z,99624.86
2019-03-26T02:08:16.381Z,99622.16
2019-03-26T02:10:21.774Z,99633.05
2019-03-26T02:12:26.185Z,99629.83
2019-03-26T02:14:30.707Z,99629.83
2019-03-26T02:16:35.144Z,99636.91
2019-03-26T02:18:39.479Z,99633.31
2019-03-26T02:20:43.812Z,99632.70
2019-03-26T02:22:48.110Z,99632.95
2019-03-26T02:24:52.891Z,99636.00
2019-03-26T02:26:57.357Z,99630.88
2019-03-26T02:29:01.683Z,99633.92
2019-03-26T02:31:06.010Z,99631.45
2019-03-26T02:33:10.298Z,99636.02
2019-03-26T02:35:18.101Z,99640.44
2019-03-26T02:37:20.689Z,99634.26
2019-03-26T02:39:25.023Z,99640.65
2019-03-26T02:41:30.235Z,99639.66
2019-03-26T02:43:34.576Z,99641.35
2019-03-26T02:45:41.966Z,99635.48
2019-03-26T02:47:46.403Z,99639.84
2019-03-26T02:49:50.793Z,99633.80
2019-03-26T02:51:55.287Z,99634.49
2019-03-26T02:53:59.629Z,99633.50
2019-03-26T02:56:03.919Z,99645.75
2019-03-26T02:58:08.372Z,99639.91
2019-03-26T03:00:13.256Z,99641.59
2019-03-26T03:02:17.570Z,99637.25
2019-03-26T03:04:21.930Z,99637.06
2019-03-26T03:06:26.459Z,99646.66
2019-03-26T03:08:31.761Z,99635.22
2019-03-26T03:10:37.224Z,99638.25
2019-03-26T03:12:42.510Z,99647.99
2019-03-26T03:14:47.894Z,99639.44
2019-03-26T03:16:54.260Z,99636.25
2019-03-26T03:18:58.692Z,99635.59
2019-03-26T03:21:03.248Z,99638.59
2019-03-26T03:23:07.609Z,99641.27
2019-03-26T03:25:13.158Z,99647.66
2019-03-26T03:27:18.496Z,99645.14
2019-03-26T03:29:24.820Z,99647.16
2019-03-26T03:31:29.212Z,99649.02
2019-03-26T03:33:33.560Z,99649.00
2019-03-26T03:35:51.410Z,99651.86
2019-03-26T03:37:44.086Z,99650.86
2019-03-26T03:39:48.515Z,99648.00
2019-03-26T03:41:52.890Z,99655.41
2019-03-26T03:43:57.207Z,99654.38
2019-03-26T03:46:01.782Z,99659.92
2019-03-26T03:48:07.508Z,99660.76
2019-03-26T03:50:12.426Z,99660.11
2019-03-26T03:52:17.806Z,99654.55
2019-03-26T03:54:23.664Z,99660.92
2019-03-26T03:56:29.690Z,99660.42
2019-03-26T03:58:36.333Z,99674.38
2019-03-26T04:00:41.262Z,99675.23
2019-03-26T04:02:45.681Z,99669.67
2019-03-26T04:04:49.993Z,99669.67
2019-03-26T04:06:54.470Z,99680.61
2019-03-26T04:08:58.809Z,99673.20
2019-03-26T04:11:04.487Z,99668.99
2019-03-26T04:13:09.010Z,99669.49
2019-03-26T04:15:13.465Z,99675.88
2019-03-26T04:17:17.839Z,99677.58
2019-03-26T04:19:22.212Z,99675.20
2019-03-26T04:21:26.568Z,99675.20
2019-03-26T04:23:30.928Z,99680.27
2019-03-26T04:25:35.424Z,99679.41
2019-03-26T04:27:39.784Z,99683.12
2019-03-26T04:29:44.080Z,99691.34
2019-03-26T04:31:48.438Z,99687.31
2019-03-26T04:33:52.987Z,99693.02
2019-03-26T04:35:57.368Z,99696.05
2019-03-26T04:38:01.755Z,99700.75
2019-03-26T04:40:06.195Z,99705.98
2019-03-26T04:42:10.575Z,99710.82
2019-03-26T04:44:14.922Z,99704.27
2019-03-26T04:46:19.230Z,99705.95
2019-03-26T04:48:23.540Z,99707.66
2019-03-26T04:50:27.841Z,99707.30
2019-03-26T04:52:33.250Z,99708.83
2019-03-26T04:54:37.591Z,99713.18
2019-03-26T04:56:41.927Z,99715.02
2019-03-26T04:58:46.263Z,99713.68
2019-03-26T05:00:51.573Z,99720.58
2019-03-26T05:02:55.903Z,99719.92
2019-03-26T05:05:00.306Z,99721.76
2019-03-26T05:07:05.939Z,99724.27
2019-03-26T05:09:11.311Z,99730.84
2019-03-26T05:11:15.685Z,99732.85
2019-03-26T05:13:20.045Z,99733.53
2019-03-26T05:15:26.406Z,99738.73
2019-03-26T05:17:30.802Z,99736.70
2019-03-26T05:19:35.104Z,99737.05
2019-03-26T05:21:40.536Z,99738.75
2019-03-26T05:23:44.890Z,99743.59
2019-03-26T05:25:49.222Z,99747.48
2019-03-26T05:27:57.988Z,99749.31
2019-03-26T05:30:03.656Z,99751.00
2019-03-26T05:32:08.049Z,99754.05
2019-03-26T05:34:12.391Z,99754.70
2019-03-26T05:36:16.713Z,99757.87
2019-03-26T05:38:22.047Z,99761.91
2019-03-26T05:40:26.350Z,99757.73
2019-03-26T05:42:30.700Z,99759.39
2019-03-26T05:44:36.017Z,99754.02
2019-03-26T05:46:40.307Z,99751.48
2019-03-26T05:48:44.649Z,99752.18
2019-03-26T05:50:51.004Z,99749.31
2019-03-26T05:52:55.391Z,99746.44
2019-03-26T05:54:59.744Z,99748.30
2019-03-26T05:57:04.237Z,99751.50
2019-03-26T05:59:08.560Z,99751.31
2019-03-26T06:01:12.883Z,99750.13
2019-03-26T06:03:17.235Z,99758.37
2019-03-26T06:05:21.833Z,99761.89
2019-03-26T06:07:27.144Z,99769.97
2019-03-26T06:09:31.561Z,99767.77
2019-03-26T06:11:35.912Z,99765.92
2019-03-26T06:13:40.216Z,99765.06
2019-03-26T06:15:44.583Z,99775.31
2019-03-26T06:17:49.024Z,99774.97
2019-03-26T06:19:53.379Z,99772.77
2019-03-26T06:21:57.688Z,99777.12
2019-03-26T06:24:02.117Z,99769.53
2019-03-26T06:26:06.524Z,99766.63
2019-03-26T06:28:10.820Z,99771.45
2019-03-26T06:30:15.676Z,99765.01
2019-03-26T06:32:20.006Z,99770.09
2019-03-26T06:34:24.407Z,99765.19
2019-03-26T06:36:28.851Z,99760.84
2019-03-26T06:38:33.228Z,99765.17
2019-03-26T06:40:38.550Z,99769.53
2019-03-26T06:42:43.126Z,99769.38
2019-03-26T06:44:47.567Z,99769.38
2019-03-26T06:46:51.941Z,99772.23
2019-03-26T06:48:56.247Z,99775.92
2019-03-26T06:51:00.637Z,99775.88
2019-03-26T06:53:04.950Z,99781.77
2019-03-26T06:55:09.720Z,99781.07
2019-03-26T06:57:14.213Z,99784.95
2019-03-26T06:59:18.514Z,99787.25
2019-03-26T07:01:22.951Z,99783.80
2019-03-26T07:03:27.406Z,99784.92
2019-03-26T07:05:31.833Z,99787.66
2019-03-26T07:07:36.302Z,99800.54
2019-03-26T07:09:42.906Z,99803.31
2019-03-26T07:11:47.280Z,99803.86
2019-03-26T07:13:51.593Z,99804.42
2019-03-26T07:15:55.968Z,99798.73
2019-03-26T07:18:00.346Z,99795.23
2019-03-26T07:20:05.151Z,99798.48
2019-03-26T07:22:10.532Z,99794.67
2019-03-26T07:24:15.087Z,99797.17
2019-03-26T07:26:19.585Z,99805.88
2019-03-26T07:28:24.007Z,99803.81
2019-03-26T07:30:47.090Z,99797.68
2019-03-26T07:32:51.409Z,99805.13
2019-03-26T07:34:55.737Z,99806.98
2019-03-26T07:37:00.054Z,99805.13
2019-03-26T07:39:06.999Z,99809.31
2019-03-26T07:41:12.455Z,99807.45
2019-03-26T07:43:16.765Z,99806.48
2019-03-26T07:45:21.183Z,99811.05
2019-03-26T07:47:25.502Z,99810.20
2019-03-26T07:49:29.822Z,99817.73
2019-03-26T07:51:35.191Z,99824.07
2019-03-26T07:53:39.488Z,99822.38
2019-03-26T07:55:44.173Z,99826.27
2019-03-26T07:57:48.407Z,99818.58
2019-03-26T07:59:52.721Z,99822.85
2019-03-26T08:01:58.162Z,99822.02
2019-03-26T08:04:02.569Z,99825.27
2019-03-26T08:06:06.915Z,99823.56
2019-03-26T08:08:11.297Z,99823.14
2019-03-26T08:10:15.728Z,99823.53
2019-03-26T08:12:20.154Z,99819.44
2019-03-26T08:14:24.496Z,99820.59
2019-03-26T08:16:28.818Z,99805.75
2019-03-26T08:18:34.157Z,99811.64
2019-03-26T08:20:38.438Z,99812.50
2019-03-26T08:22:44.942Z,99798.31
2019-03-26T08:24:51.386Z,99796.22
2019-03-26T08:26:56.713Z,99790.86
2019-03-26T08:29:01.174Z,99799.80
2019-03-26T08:31:06.546Z,99790.23
2019-03-26T08:33:10.880Z,99783.53
2019-03-26T08:35:15.546Z,99781.48
2019-03-26T08:37:19.927Z,99781.21
2019-03-26T08:39:24.234Z,99779.36
2019-03-26T08:41:28.570Z,99778.40
2019-03-26T08:43:32.871Z,99787.03
2019-03-26T08:45:37.181Z,99789.68
2019-03-26T08:47:41.493Z,99800.19
2019-03-26T08:49:46.833Z,99806.56
2019-03-26T08:51:51.185Z,99809.05
2019-03-26T08:53:57.541Z,99805.10
2019-03-26T08:56:01.855Z,99809.80
2019-03-26T08:58:06.223Z,99810.58
2019-03-26T09:00:11.959Z,99816.30
2019-03-26T09:02:16.353Z,99816.44
2019-03-26T09:04:21.639Z,99814.97
2019-03-26T09:06:26.115Z,99825.25
2019-03-26T09:08:30.496Z,99817.09
2019-03-26T09:10:34.794Z,99826.13
2019-03-26T09:12:39.759Z,99821.41
2019-03-26T09:14:44.281Z,99823.21
2019-03-26T09:16:48.668Z,99820.91
2019-03-26T09:18:53.108Z,99822.80
2019-03-26T09:20:57.439Z,99827.38
2019-03-26T09:23:01.723Z,99832.06
2019-03-26T09:25:06.851Z,99833.20
2019-03-26T09:27:11.184Z,99834.23
2019-03-26T09:29:15.477Z,99839.94
2019-03-26T09:31:19.789Z,99832.79
2019-03-26T09:33:24.132Z,99835.23
2019-03-26T09:35:30.463Z,99831.88
2019-03-26T09:37:34.799Z,99819.67
2019-03-26T09:39:40.119Z,99826.75
2019-03-26T09:41:44.457Z,99830.53
2019-03-26T09:43:49.840Z,99826.16
2019-03-26T09:45:54.192Z,99832.77
2019-03-26T09:47:58.518Z,99838.23
2019-03-26T09:50:02.920Z,99842.22
2019-03-26T09:52:07.256Z,99843.94
2019-03-26T09:54:11.645Z,99830.03
2019-03-26T09:56:27.908Z,99829.24
2019-03-26T09:58:22.115Z,99828.92
2019-03-26T10:00:26.421Z,99827.36
2019-03-26T10:02:30.753Z,99826.30
2019-03-26T10:04:35.141Z,99819.56
2019-03-26T10:06:39.492Z,99824.56
2019-03-26T10:08:52.187Z,99830.79
2019-03-26T10:10:53.144Z,99832.39
2019-03-26T10:12:57.459Z,99833.10
2019-03-26T10:15:01.772Z,99836.13
2019-03-26T10:17:08.225Z,99840.75
2019-03-26T10:19:12.539Z,99835.97
2019-03-26T10:21:16.957Z,99841.52
2019-03-26T10:23:21.295Z,99835.97
2019-03-26T10:25:25.683Z,99837.25
2019-03-26T10:27:30.006Z,99843.19
2019-03-26T10:29:34.329Z,99837.91
2019-03-26T10:31:38.734Z,99835.23
2019-03-26T10:33:43.089Z,99844.45
2019-03-26T10:35:47.399Z,99832.59
2019-03-26T10:37:51.699Z,99839.09
2019-03-26T10:39:58.063Z,99837.17
2019-03-26T10:42:02.411Z,99834.69
2019-03-26T10:44:06.690Z,99827.54
2019-03-26T10:46:11.056Z,99825.41
2019-03-26T10:48:15.438Z,99824.53
2019-03-26T10:50:19.726Z,99823.70
2019-03-26T10:52:26.092Z,99817.47
2019-03-26T10:54:31.442Z,99810.14
2019-03-26T10:56:35.826Z,99816.52
2019-03-26T10:58:41.283Z,99818.13
2019-03-26T11:00:45.711Z,99813.98
2019-03-26T11:02:50.041Z,99808.03
2019-03-26T11:04:55.464Z,99811.40
2019-03-26T11:06:59.795Z,99824.89
2019-03-26T11:09:19.892Z,99814.64
2019-03-26T11:11:13.726Z,99814.25
2019-03-26T11:13:19.134Z,99813.36
2019-03-26T11:15:23.406Z,99812.78
2019-03-26T11:17:27.703Z,99814.14
2019-03-26T11:19:32.010Z,99811.22
2019-03-26T11:21:36.369Z,99812.20
2019-03-26T11:23:41.667Z,99813.54
2019-03-26T11:25:46.060Z,99810.23
2019-03-26T11:27:50.409Z,99810.97
2019-03-26T11:29:54.796Z,99809.63
2019-03-26T11:32:00.214Z,99807.30
2019-03-26T11:34:04.733Z,99804.98
2019-03-26T11:36:09.129Z,99807.39
2019-03-26T11:38:13.436Z,99809.68
2019-03-26T11:40:18.921Z,99807.72
2019-03-26T11:42:23.294Z,99808.75
2019-03-26T11:44:27.593Z,99809.63
2019-03-26T11:46:31.986Z,99814.67
2019-03-26T11:48:37.389Z,99809.73
2019-03-26T11:50:41.830Z,99814.55
2019-03-26T11:52:46.269Z,99811.39
2019-03-26T11:54:50.604Z,99810.20
2019-03-26T11:56:54.992Z,99816.70
2019-03-26T11:58:59.358Z,99811.05
2019-03-26T12:01:04.289Z,99804.23
2019-03-26T12:03:08.726Z,99804.92
2019-03-26T12:05:13.450Z,99802.02
2019-03-26T12:07:17.851Z,99806.20
2019-03-26T12:09:22.341Z,99798.22
2019-03-26T12:11:26.676Z,99811.50
2019-03-26T12:13:33.020Z,99808.91
2019-03-26T12:15:37.411Z,99806.44
2019-03-26T12:17:41.762Z,99805.48
2019-03-26T12:19:46.068Z,99793.48
2019-03-26T12:21:51.654Z,99787.78
2019-03-26T12:23:56.051Z,99789.23
2019-03-26T12:26:00.344Z,99792.39
2019-03-26T12:28:04.748Z,99792.65
2019-03-26T12:30:11.235Z,99789.61
2019-03-26T12:32:15.638Z,99792.06
2019-03-26T12:34:20.036Z,99791.94
2019-03-26T12:36:24.469Z,99792.67
2019-03-26T12:38:28.792Z,99792.67
2019-03-26T12:40:33.125Z,99794.48
2019-03-26T12:42:37.445Z,99795.20
2019-03-26T12:44:41.740Z,99793.64
2019-03-26T12:46:46.050Z,99787.95
2019-03-26T12:48:50.429Z,99783.69
2019-03-26T12:50:54.858Z,99772.66
2019-03-26T12:53:00.228Z,99771.81
2019-03-26T12:55:05.693Z,99783.38
2019-03-26T12:57:10.051Z,99775.52
2019-03-26T12:59:14.448Z,99774.77
2019-03-26T13:01:18.974Z,99769.75
2019-03-26T13:03:23.259Z,99777.77
2019-03-26T13:05:29.780Z,99768.05
2019-03-26T13:07:34.119Z,99769.56
2019-03-26T13:09:41.678Z,99767.69
2019-03-26T13:11:44.612Z,99767.50
2019-03-26T13:13:50.949Z,99768.22
2019-03-26T13:15:55.279Z,99761.16
2019-03-26T13:17:59.654Z,99760.19
2019-03-26T13:20:04.385Z,99760.11
2019-03-26T13:22:08.749Z,99761.60
2019-03-26T13:24:13.187Z,99751.28
2019-03-26T13:26:18.484Z,99746.39
2019-03-26T13:28:22.811Z,99748.21
2019-03-26T13:30:29.163Z,99747.87
2019-03-26T13:32:33.477Z,99747.20
2019-03-26T13:34:37.815Z,99747.94
2019-03-26T13:36:43.204Z,99749.16
2019-03-26T13:38:47.540Z,99749.96
2019-03-26T13:40:51.912Z,99747.08
2019-03-26T13:42:56.428Z,99749.80
2019-03-26T13:45:00.880Z,99755.42
2019-03-26T13:47:05.396Z,99754.20
2019-03-26T13:49:09.889Z,99744.56
2019-03-26T13:51:16.551Z,99741.91
2019-03-26T13:53:22.674Z,99734.33
2019-03-26T13:55:28.100Z,99739.71
2019-03-26T13:57:32.564Z,99741.60
2019-03-26T13:59:37.883Z,99741.91
2019-03-26T14:01:42.271Z,99733.27
2019-03-26T14:03:46.734Z,99725.67
2019-03-26T14:05:51.150Z,99738.80
2019-03-26T14:07:55.608Z,99732.80
2019-03-26T14:09:59.952Z,99740.69
2019-03-26T14:12:04.268Z,99740.16
2019-03-26T14:14:09.767Z,99737.48
2019-03-26T14:16:14.120Z,99742.02
2019-03-26T14:18:18.463Z,99744.06
2019-03-26T14:20:22.928Z,99742.50
2019-03-26T14:22:27.344Z,99742.66
2019-03-26T14:24:32.740Z,99742.05
2019-03-26T14:26:39.102Z,99742.05
2019-03-26T14:28:43.874Z,99744.78
2019-03-26T14:30:48.386Z,99748.48
2019-03-26T14:32:52.800Z,99751.48
2019-03-26T14:34:57.230Z,99747.23
2019-03-26T14:37:01.568Z,99743.01
2019-03-26T14:39:09.227Z,99739.64
2019-03-26T14:41:13.587Z,99741.02
2019-03-26T14:43:17.962Z,99750.52
2019-03-26T14:45:22.539Z,99750.20
2019-03-26T14:47:26.925Z,99745.95
2019-03-26T14:49:31.246Z,99749.76
2019-03-26T14:51:35.566Z,99752.41
2019-03-26T14:53:39.967Z,99748.52
2019-03-26T14:55:44.299Z,99747.07
2019-03-26T14:57:48.604Z,99751.00
2019-03-26T14:59:52.945Z,99756.97
2019-03-26T15:01:59.357Z,99758.34
2019-03-26T15:04:03.822Z,99751.40
2019-03-26T15:06:08.165Z,99749.67
2019-03-26T15:08:12.549Z,99743.54
2019-03-26T15:10:17.163Z,99749.31
2019-03-26T15:12:21.558Z,99745.98
2019-03-26T15:14:25.903Z,99739.97
2019-03-26T15:16:30.224Z,99741.81
2019-03-26T15:18:34.621Z,99732.94
2019-03-26T15:20:38.944Z,99741.95
2019-03-26T15:22:43.352Z,99742.05
2019-03-26T15:24:47.751Z,99741.56
2019-03-26T15:26:52.238Z,99734.70
2019-03-26T15:29:02.361Z,99733.46
2019-03-26T15:31:10.825Z,99731.06
2019-03-26T15:33:15.125Z,99736.11
2019-03-26T15:35:19.676Z,99732.25
2019-03-26T15:37:24.099Z,99739.59
2019-03-26T15:39:28.459Z,99739.82
2019-03-26T15:41:32.748Z,99739.94
2019-03-26T15:43:37.085Z,99734.19
2019-03-26T15:45:41.464Z,99731.08
2019-03-26T15:47:45.840Z,99741.48
2019-03-26T15:49:50.305Z,99729.13
2019-03-26T15:51:54.630Z,99725.73
2019-03-26T15:53:58.981Z,99730.47
2019-03-26T15:56:03.343Z,99724.05
2019-03-26T15:58:07.832Z,99725.88
2019-03-26T16:00:12.611Z,99730.62
2019-03-26T16:02:16.947Z,99732.17
2019-03-26T16:04:21.218Z,99732.83
2019-03-26T16:06:25.566Z,99730.77
2019-03-26T16:08:29.869Z,99732.22
2019-03-26T16:10:36.408Z,99736.66
2019-03-26T16:12:41.577Z,99736.89
2019-03-26T16:14:46.991Z,99735.53
2019-03-26T16:16:51.399Z,99737.95
2019-03-26T16:18:55.810Z,99732.71
2019-03-26T16:21:00.163Z,99734.20
2019-03-26T16:23:07.701Z,99737.34
2019-03-26T16:25:12.205Z,99731.80
2019-03-26T16:27:16.621Z,99733.39
2019-03-26T16:29:21.062Z,99740.70
2019-03-26T16:31:25.410Z,99730.77
2019-03-26T16:33:30.748Z,99736.66
2019-03-26T16:35:35.142Z,99731.82
2019-03-26T16:37:39.488Z,99739.36
2019-03-26T16:39:43.809Z,99731.33
2019-03-26T16:41:49.540Z,99734.98
2019-03-26T16:43:53.978Z,99739.48
2019-03-26T16:45:58.288Z,99744.63
2019-03-26T16:48:02.685Z,99746.79
2019-03-26T16:50:07.595Z,99747.44
2019-03-26T16:52:12.045Z,99745.14
2019-03-26T16:54:16.491Z,99754.14
2019-03-26T16:56:21.053Z,99756.20
2019-03-26T16:58:25.422Z,99752.34
2019-03-26T17:00:34.956Z,99754.14
2019-03-26T17:02:39.480Z,99756.95
2019-03-26T17:04:47.018Z,99752.14
2019-03-26T17:06:51.375Z,99750.06
2019-03-26T17:08:55.676Z,99748.60
2019-03-26T17:10:59.988Z,99755.91
2019-03-26T17:13:05.630Z,99753.94
2019-03-26T17:15:10.110Z,99752.47
2019-03-26T17:17:14.492Z,99755.19
2019-03-26T17:19:20.913Z,99755.38
2019-03-26T17:21:25.259Z,99753.50
2019-03-26T17:23:30.644Z,99752.66
2019-03-26T17:25:35.916Z,99752.78
2019-03-26T17:27:41.356Z,99759.45
2019-03-26T17:29:45.715Z,99755.19
2019-03-26T17:31:49.999Z,99756.44
2019-03-26T17:33:55.345Z,99763.33
2019-03-26T17:36:00.678Z,99756.75
2019-03-26T17:38:05.094Z,99763.65
2019-03-26T17:40:09.583Z,99768.67
2019-03-26T17:42:17.492Z,99764.58
2019-03-26T17:44:21.036Z,99763.00
2019-03-26T17:46:27.386Z,99762.27
2019-03-26T17:48:32.767Z,99766.57
2019-03-26T17:50:37.143Z,99760.19
2019-03-26T17:52:41.454Z,99766.03
2019-03-26T17:54:45.827Z,99760.71
2019-03-26T17:56:50.283Z,99758.51
2019-03-26T17:58:54.610Z,99764.56
2019-03-26T18:00:59.130Z,99767.17
2019-03-26T18:03:03.545Z,99765.60
2019-03-26T18:05:20.729Z,99765.52
2019-03-26T18:07:25.127Z,99773.97
2019-03-26T18:09:29.592Z,99773.13
2019-03-26T18:11:34.001Z,99773.75
2019-03-26T18:13:39.393Z,99777.90
2019-03-26T18:15:43.775Z,99775.08
2019-03-26T18:17:49.151Z,99776.44
2019-03-26T18:19:53.504Z,99772.36
2019-03-26T18:21:57.904Z,99776.11
2019-03-26T18:24:02.359Z,99773.09
2019-03-26T18:26:06.729Z,99784.36
2019-03-26T18:28:11.075Z,99786.56
2019-03-26T18:30:16.086Z,99779.77
2019-03-26T18:32:20.467Z,99787.08
2019-03-26T18:34:24.885Z,99792.18
2019-03-26T18:36:29.201Z,99788.84
2019-03-26T18:38:34.494Z,99781.42
2019-03-26T18:40:40.912Z,99786.23
2019-03-26T18:42:45.362Z,99788.95
2019-03-26T18:44:49.725Z,99788.95
2019-03-26T18:46:55.124Z,99787.27
2019-03-26T18:48:59.454Z,99792.06
2019-03-26T18:51:04.804Z,99785.47
2019-03-26T18:53:09.199Z,99787.55
2019-03-26T18:55:13.715Z,99787.77
2019-03-26T18:57:18.060Z,99793.93
2019-03-26T18:59:24.409Z,99793.60
2019-03-26T19:01:28.770Z,99796.72
2019-03-26T19:03:33.231Z,99801.19
2019-03-26T19:05:37.726Z,99801.08
2019-03-26T19:07:42.114Z,99792.02
2019-03-26T19:09:46.457Z,99795.64
2019-03-26T19:11:50.819Z,99796.37
2019-03-26T19:13:55.134Z,99795.19
2019-03-26T19:15:59.417Z,99800.33
2019-03-26T19:18:03.932Z,99798.34
2019-03-26T19:20:08.689Z,99798.52
2019-03-26T19:22:13.006Z,99799.25
2019-03-26T19:24:19.359Z,99800.49
2019-03-26T19:26:23.903Z,99798.62
2019-03-26T19:28:28.274Z,99798.30
2019-03-26T19:30:32.685Z,99799.75
2019-03-26T19:35:23.932Z,99801.69
2019-03-26T19:37:28.253Z,99799.07
2019-03-26T19:39:32.565Z,99801.15
2019-03-26T19:41:36.902Z,99799.17
2019-03-26T19:43:41.202Z,99800.59
2019-03-26T19:45:47.560Z,99803.70
2019-03-26T19:47:51.877Z,99798.48
2019-03-26T19:49:57.230Z,99801.70
2019-03-26T19:52:01.597Z,99796.49
2019-03-26T19:54:06.016Z,99800.56
2019-03-26T19:56:10.531Z,99800.56
2019-03-26T19:58:14.898Z,99806.84
2019-03-26T20:00:20.338Z,99804.63
2019-03-26T20:02:24.683Z,99808.48
2019-03-26T20:04:31.120Z,99806.11
2019-03-26T20:06:35.515Z,99807.98
2019-03-26T20:08:39.820Z,99801.08
2019-03-26T20:10:44.142Z,99808.38
2019-03-26T20:12:48.564Z,99808.70
2019-03-26T20:14:53.934Z,99805.98
2019-03-26T20:16:58.261Z,99801.92
2019-03-26T20:19:04.617Z,99809.21
2019-03-26T20:21:08.997Z,99804.00
2019-03-26T20:23:13.473Z,99802.31
2019-03-26T20:25:17.906Z,99802.53
2019-03-26T20:27:22.260Z,99808.13
2019-03-26T20:29:26.575Z,99811.91
2019-03-26T20:31:32.933Z,99813.44
2019-03-26T20:33:37.260Z,99817.72
2019-03-26T20:35:41.562Z,99814.16
2019-03-26T20:37:45.928Z,99816.75
2019-03-26T20:39:50.304Z,99820.48
2019-03-26T20:41:54.705Z,99821.22
2019-03-26T20:43:59.114Z,99823.08
2019-03-26T20:46:03.452Z,99827.15
2019-03-26T20:48:08.783Z,99835.28
2019-03-26T20:50:14.945Z,99839.17
2019-03-26T20:52:19.449Z,99838.84
2019-03-26T20:54:24.790Z,99833.12
2019-03-26T20:56:29.778Z,99836.34
2019-03-26T20:58:34.524Z,99839.23
2019-03-26T21:00:41.068Z,99834.14
2019-03-26T21:02:45.519Z,99833.63
2019-03-26T21:04:49.856Z,99834.98
2019-03-26T21:06:54.200Z,99838.00
2019-03-26T21:08:58.489Z,99845.95
2019-03-26T21:11:06.517Z,99834.77
2019-03-26T21:13:10.898Z,99845.62
2019-03-26T21:15:16.442Z,99855.45
2019-03-26T21:17:20.850Z,99860.88
2019-03-26T21:19:25.198Z,99862.52
2019-03-26T21:21:30.540Z,99865.91
2019-03-26T21:23:34.893Z,99873.31
2019-03-26T21:25:39.276Z,99875.64
2019-03-26T21:27:43.575Z,99871.36
2019-03-26T21:29:47.894Z,99870.64
2019-03-26T21:31:52.293Z,99877.23
2019-03-26T21:33:56.703Z,99881.44
2019-03-26T21:36:01.127Z,99878.17
2019-03-26T21:38:06.586Z,99873.92
2019-03-26T21:40:11.818Z,99872.36
2019-03-26T21:42:17.244Z,99868.92
2019-03-26T21:44:21.670Z,99868.92
2019-03-26T21:46:25.986Z,99870.94
2019-03-26T21:48:31.421Z,99864.16
2019-03-26T21:50:35.895Z,99858.52
2019-03-26T21:52:40.256Z,99867.80
2019-03-26T21:54:45.702Z,99866.33
2019-03-26T21:56:50.008Z,99863.83
2019-03-26T21:58:54.370Z,99865.39
2019-03-26T22:00:58.677Z,99868.29
2019-03-26T22:03:04.097Z,99867.27
2019-03-26T22:05:09.216Z,99869.34
2019-03-26T22:07:13.702Z,99869.02
2019-03-26T22:09:17.994Z,99870.38
2019-03-26T22:11:22.368Z,99873.08
2019-03-26T22:13:26.702Z,99873.20
2019-03-26T22:15:31.111Z,99880.20
2019-03-26T22:17:35.582Z,99873.59
2019-03-26T22:19:40.153Z,99868.89
2019-03-26T22:21:45.599Z,99867.30
2019-03-26T22:23:49.986Z,99868.92
2019-03-26T22:25:54.463Z,99863.20
2019-03-26T22:27:58.836Z,99871.63
2019-03-26T22:30:03.372Z,99874.34
2019-03-26T22:32:07.765Z,99880.48
2019-03-26T22:34:12.103Z,99880.70
2019-03-26T22:36:17.438Z,99879.85
2019-03-26T22:38:22.786Z,99879.52
2019-03-26T22:40:27.296Z,99879.13
2019-03-26T22:42:32.640Z,99879.59
2019-03-26T22:44:36.956Z,99884.05
2019-03-26T22:46:42.379Z,99890.06
2019-03-26T22:48:47.731Z,99892.32
2019-03-26T22:50:52.048Z,99901.69
2019-03-26T22:52:56.424Z,99900.93
2019-03-26T22:55:00.784Z,99899.83
2019-03-26T22:57:05.175Z,99901.39
2019-03-26T22:59:09.610Z,99900.55
2019-03-26T23:01:14.097Z,99897.33
2019-03-26T23:03:19.472Z,99902.93
2019-03-26T23:05:23.863Z,99900.60
2019-03-26T23:07:28.208Z,99903.98
2019-03-26T23:09:32.509Z,99904.92
2019-03-26T23:11:36.908Z,99900.55
2019-03-26T23:13:41.247Z,99903.98
2019-03-26T23:15:45.699Z,99898.23
2019-03-26T23:17:50.164Z,99900.30
2019-03-26T23:19:54.528Z,99903.19
2019-03-26T23:21:58.842Z,99898.48
2019-03-26T23:24:03.155Z,99898.56
2019-03-26T23:26:08.583Z,99893.02
2019-03-26T23:28:12.863Z,99899.67
2019-03-26T23:30:17.829Z,99899.84
2019-03-26T23:32:22.198Z,99900.56
2019-03-26T23:34:26.620Z,99907.72
2019-03-26T23:36:31.018Z,99900.81
2019-03-26T23:38:35.416Z,99897.59
2019-03-26T23:40:39.786Z,99901.78
2019-03-26T23:42:44.296Z,99898.56
2019-03-26T23:44:58.250Z,99899.71
2019-03-26T23:46:54.721Z,99900.25
2019-03-26T23:48:59.045Z,99903.91
2019-03-26T23:51:04.567Z,99901.87
2019-03-26T23:53:08.874Z,99897.20
2019-03-26T23:55:13.694Z,99899.97
2019-03-26T23:57:18.093Z,99900.55
2019-03-26T23:59:22.400Z,99904.02
